sensor_id;sensor_type;location;lat;lon;timestamp;P1;durP1;ratioP1;P2;durP2;ratioP2
28007;SDS011;15333;50.010;20.020;2024-01-16T00:00:42;15.00;;;8.10;;
28007;SDS011;15333;50.010;20.020;2024-01-16T00:04:03;15.32;;;8.88;;
28007;SDS011;15333;50.010;20.020;2024-01-16T00:07:04;16.63;;;9.75;;
28007;SDS011;15333;50.010;20.020;2024-01-16T00:10:09;18.05;;;11.43;;
28007;SDS011;15333;50.010;20.020;2024-01-16T00:13:10;17.33;;;10.98;;
28007;SDS011;15333;50.010;20.020;2024-01-16T00:16:10;17.83;;;10.82;;
28007;SDS011;15333;50.010;20.020;2024-01-16T00:19:11;16.60;;;11.90;;
28007;SDS011;15333;50.010;20.020;2024-01-16T00:22:13;18.73;;;12.35;;
28007;SDS011;15333;50.010;20.020;2024-01-16T00:25:13;19.90;;;11.77;;
28007;SDS011;15333;50.010;20.020;2024-01-16T00:28:15;18.80;;;11.77;;
28007;SDS011;15333;50.010;20.020;2024-01-16T00:31:15;23.50;;;14.68;;
28007;SDS011;15333;50.010;20.020;2024-01-16T00:34:16;24.15;;;13.73;;
28007;SDS011;15333;50.010;20.020;2024-01-16T00:37:17;24.13;;;15.40;;
28007;SDS011;15333;50.010;20.020;2024-01-16T00:40:18;23.25;;;15.38;;
28007;SDS011;15333;50.010;20.020;2024-01-16T00:43:19;23.98;;;14.80;;
28007;SDS011;15333;50.010;20.020;2024-01-16T00:46:20;25.67;;;15.38;;
28007;SDS011;15333;50.010;20.020;2024-01-16T00:49:21;26.90;;;15.20;;
28007;SDS011;15333;50.010;20.020;2024-01-16T00:52:22;25.33;;;15.40;;
28007;SDS011;15333;50.010;20.020;2024-01-16T00:55:22;25.10;;;15.38;;
28007;SDS011;15333;50.010;20.020;2024-01-16T00:58:23;26.63;;;15.38;;
28007;SDS011;15333;50.010;20.020;2024-01-16T01:01:24;25.30;;;15.35;;
28007;SDS011;15333;50.010;20.020;2024-01-16T01:04:25;27.92;;;16.52;;
28007;SDS011;15333;50.010;20.020;2024-01-16T01:07:26;26.05;;;16.42;;
28007;SDS011;15333;50.010;20.020;2024-01-16T01:10:27;28.63;;;18.00;;
28007;SDS011;15333;50.010;20.020;2024-01-16T01:13:28;27.95;;;18.15;;
28007;SDS011;15333;50.010;20.020;2024-01-16T01:16:29;28.83;;;17.75;;
28007;SDS011;15333;50.010;20.020;2024-01-16T01:19:29;31.75;;;19.08;;
28007;SDS011;15333;50.010;20.020;2024-01-16T01:22:30;29.10;;;18.05;;
28007;SDS011;15333;50.010;20.020;2024-01-16T01:25:31;25.80;;;17.73;;
28007;SDS011;15333;50.010;20.020;2024-01-16T01:28:32;27.38;;;17.40;;
28007;SDS011;15333;50.010;20.020;2024-01-16T01:31:32;29.35;;;17.42;;
28007;SDS011;15333;50.010;20.020;2024-01-16T01:34:34;27.52;;;17.45;;
28007;SDS011;15333;50.010;20.020;2024-01-16T01:37:35;25.75;;;15.88;;
28007;SDS011;15333;50.010;20.020;2024-01-16T01:40:35;24.08;;;15.68;;
28007;SDS011;15333;50.010;20.020;2024-01-16T01:43:36;24.70;;;16.52;;
28007;SDS011;15333;50.010;20.020;2024-01-16T01:46:37;27.67;;;16.38;;
28007;SDS011;15333;50.010;20.020;2024-01-16T01:49:38;29.60;;;17.15;;
28007;SDS011;15333;50.010;20.020;2024-01-16T01:52:40;25.98;;;17.83;;
28007;SDS011;15333;50.010;20.020;2024-01-16T01:55:41;26.83;;;17.92;;
28007;SDS011;15333;50.010;20.020;2024-01-16T01:58:46;29.35;;;17.40;;
28007;SDS011;15333;50.010;20.020;2024-01-16T02:01:48;28.35;;;17.73;;
28007;SDS011;15333;50.010;20.020;2024-01-16T02:04:53;30.27;;;18.55;;
28007;SDS011;15333;50.010;20.020;2024-01-16T02:07:54;32.63;;;18.65;;
28007;SDS011;15333;50.010;20.020;2024-01-16T02:10:55;32.53;;;19.17;;
28007;SDS011;15333;50.010;20.020;2024-01-16T02:13:55;31.83;;;18.58;;
28007;SDS011;15333;50.010;20.020;2024-01-16T02:16:56;30.95;;;19.83;;
28007;SDS011;15333;50.010;20.020;2024-01-16T02:19:57;34.83;;;19.92;;
28007;SDS011;15333;50.010;20.020;2024-01-16T02:22:59;35.20;;;20.02;;
28007;SDS011;15333;50.010;20.020;2024-01-16T02:26:03;31.73;;;18.90;;
28007;SDS011;15333;50.010;20.020;2024-01-16T02:29:05;30.45;;;17.33;;
28007;SDS011;15333;50.010;20.020;2024-01-16T02:32:05;25.52;;;15.75;;
28007;SDS011;15333;50.010;20.020;2024-01-16T02:35:06;23.05;;;14.38;;
28007;SDS011;15333;50.010;20.020;2024-01-16T02:38:07;25.42;;;14.20;;
28007;SDS011;15333;50.010;20.020;2024-01-16T02:41:08;22.45;;;13.23;;
28007;SDS011;15333;50.010;20.020;2024-01-16T02:44:09;19.85;;;12.63;;
28007;SDS011;15333;50.010;20.020;2024-01-16T02:47:10;22.52;;;13.18;;
28007;SDS011;15333;50.010;20.020;2024-01-16T02:50:10;25.02;;;13.65;;
28007;SDS011;15333;50.010;20.020;2024-01-16T02:53:11;19.35;;;12.13;;
28007;SDS011;15333;50.010;20.020;2024-01-16T02:56:12;19.10;;;12.25;;
28007;SDS011;15333;50.010;20.020;2024-01-16T02:59:13;20.88;;;12.27;;
28007;SDS011;15333;50.010;20.020;2024-01-16T03:02:13;18.13;;;12.30;;
28007;SDS011;15333;50.010;20.020;2024-01-16T03:05:15;23.10;;;13.80;;
28007;SDS011;15333;50.010;20.020;2024-01-16T03:08:15;18.60;;;12.50;;
28007;SDS011;15333;50.010;20.020;2024-01-16T03:11:16;18.27;;;12.10;;
28007;SDS011;15333;50.010;20.020;2024-01-16T03:14:17;15.73;;;10.55;;
28007;SDS011;15333;50.010;20.020;2024-01-16T03:17:19;16.75;;;9.65;;
28007;SDS011;15333;50.010;20.020;2024-01-16T03:20:19;19.38;;;9.43;;
28007;SDS011;15333;50.010;20.020;2024-01-16T03:23:20;12.63;;;8.73;;
28007;SDS011;15333;50.010;20.020;2024-01-16T03:26:21;14.82;;;9.77;;
28007;SDS011;15333;50.010;20.020;2024-01-16T03:29:22;12.88;;;8.93;;
28007;SDS011;15333;50.010;20.020;2024-01-16T03:32:23;12.93;;;8.20;;
28007;SDS011;15333;50.010;20.020;2024-01-16T03:35:24;12.20;;;7.80;;
28007;SDS011;15333;50.010;20.020;2024-01-16T03:38:25;11.48;;;7.40;;
28007;SDS011;15333;50.010;20.020;2024-01-16T03:41:26;11.50;;;7.53;;
28007;SDS011;15333;50.010;20.020;2024-01-16T03:44:26;12.73;;;8.00;;
28007;SDS011;15333;50.010;20.020;2024-01-16T03:47:27;13.45;;;7.63;;
28007;SDS011;15333;50.010;20.020;2024-01-16T03:50:28;12.05;;;7.57;;
28007;SDS011;15333;50.010;20.020;2024-01-16T03:53:29;15.35;;;7.53;;
28007;SDS011;15333;50.010;20.020;2024-01-16T03:56:29;10.80;;;7.10;;
28007;SDS011;15333;50.010;20.020;2024-01-16T03:59:30;12.55;;;7.97;;
28007;SDS011;15333;50.010;20.020;2024-01-16T04:02:31;11.68;;;7.45;;
28007;SDS011;15333;50.010;20.020;2024-01-16T04:05:33;9.25;;;6.68;;
28007;SDS011;15333;50.010;20.020;2024-01-16T04:08:34;12.15;;;7.18;;
28007;SDS011;15333;50.010;20.020;2024-01-16T04:11:35;11.45;;;6.85;;
28007;SDS011;15333;50.010;20.020;2024-01-16T04:14:36;12.95;;;7.53;;
28007;SDS011;15333;50.010;20.020;2024-01-16T04:17:37;11.98;;;8.38;;
28007;SDS011;15333;50.010;20.020;2024-01-16T04:20:37;13.05;;;9.32;;
28007;SDS011;15333;50.010;20.020;2024-01-16T04:23:38;15.80;;;10.75;;
28007;SDS011;15333;50.010;20.020;2024-01-16T04:26:39;15.40;;;10.48;;
28007;SDS011;15333;50.010;20.020;2024-01-16T04:29:40;16.88;;;9.75;;
28007;SDS011;15333;50.010;20.020;2024-01-16T04:32:41;13.45;;;9.65;;
28007;SDS011;15333;50.010;20.020;2024-01-16T04:35:42;15.20;;;9.98;;
28007;SDS011;15333;50.010;20.020;2024-01-16T04:38:43;16.45;;;8.85;;
28007;SDS011;15333;50.010;20.020;2024-01-16T04:41:44;12.73;;;8.02;;
28007;SDS011;15333;50.010;20.020;2024-01-16T04:44:45;13.18;;;8.80;;
28007;SDS011;15333;50.010;20.020;2024-01-16T04:47:46;11.43;;;8.80;;
28007;SDS011;15333;50.010;20.020;2024-01-16T04:50:47;15.10;;;9.38;;
28007;SDS011;15333;50.010;20.020;2024-01-16T04:53:48;15.48;;;7.97;;
28007;SDS011;15333;50.010;20.020;2024-01-16T04:56:49;15.18;;;9.15;;
28007;SDS011;15333;50.010;20.020;2024-01-16T04:59:50;13.25;;;8.18;;
28007;SDS011;15333;50.010;20.020;2024-01-16T05:02:51;13.85;;;8.23;;
28007;SDS011;15333;50.010;20.020;2024-01-16T05:05:52;14.75;;;8.77;;
28007;SDS011;15333;50.010;20.020;2024-01-16T05:08:52;13.20;;;7.55;;
28007;SDS011;15333;50.010;20.020;2024-01-16T05:11:53;15.40;;;8.02;;
28007;SDS011;15333;50.010;20.020;2024-01-16T05:14:54;12.35;;;8.82;;
28007;SDS011;15333;50.010;20.020;2024-01-16T05:17:55;11.77;;;7.70;;
28007;SDS011;15333;50.010;20.020;2024-01-16T05:20:56;12.32;;;8.18;;
28007;SDS011;15333;50.010;20.020;2024-01-16T05:23:57;15.27;;;8.38;;
28007;SDS011;15333;50.010;20.020;2024-01-16T05:26:57;12.50;;;5.57;;
28007;SDS011;15333;50.010;20.020;2024-01-16T05:29:58;14.55;;;8.32;;
28007;SDS011;15333;50.010;20.020;2024-01-16T05:32:59;13.90;;;8.27;;
28007;SDS011;15333;50.010;20.020;2024-01-16T05:36:01;12.98;;;8.00;;
28007;SDS011;15333;50.010;20.020;2024-01-16T05:39:02;17.00;;;10.63;;
28007;SDS011;15333;50.010;20.020;2024-01-16T05:42:03;14.23;;;9.02;;
28007;SDS011;15333;50.010;20.020;2024-01-16T05:45:05;14.77;;;10.48;;
28007;SDS011;15333;50.010;20.020;2024-01-16T05:48:06;15.55;;;10.15;;
28007;SDS011;15333;50.010;20.020;2024-01-16T05:51:08;13.75;;;8.98;;
28007;SDS011;15333;50.010;20.020;2024-01-16T05:54:09;16.35;;;10.15;;
28007;SDS011;15333;50.010;20.020;2024-01-16T05:57:10;16.90;;;10.38;;
28007;SDS011;15333;50.010;20.020;2024-01-16T06:00:11;17.20;;;10.60;;
28007;SDS011;15333;50.010;20.020;2024-01-16T06:03:13;14.25;;;9.38;;
28007;SDS011;15333;50.010;20.020;2024-01-16T06:06:14;14.25;;;9.57;;
28007;SDS011;15333;50.010;20.020;2024-01-16T06:09:15;16.08;;;10.07;;
28007;SDS011;15333;50.010;20.020;2024-01-16T06:12:16;15.40;;;9.40;;
28007;SDS011;15333;50.010;20.020;2024-01-16T06:15:17;15.20;;;10.13;;
28007;SDS011;15333;50.010;20.020;2024-01-16T06:18:18;15.15;;;10.18;;
28007;SDS011;15333;50.010;20.020;2024-01-16T06:21:18;13.95;;;9.40;;
28007;SDS011;15333;50.010;20.020;2024-01-16T06:24:19;13.27;;;8.75;;
28007;SDS011;15333;50.010;20.020;2024-01-16T06:27:20;15.27;;;10.43;;
28007;SDS011;15333;50.010;20.020;2024-01-16T06:30:21;17.25;;;10.98;;
28007;SDS011;15333;50.010;20.020;2024-01-16T06:33:23;16.88;;;11.05;;
28007;SDS011;15333;50.010;20.020;2024-01-16T06:36:24;18.02;;;11.95;;
28007;SDS011;15333;50.010;20.020;2024-01-16T06:39:25;22.83;;;12.77;;
28007;SDS011;15333;50.010;20.020;2024-01-16T06:42:26;19.85;;;12.00;;
28007;SDS011;15333;50.010;20.020;2024-01-16T06:45:27;22.23;;;12.90;;
28007;SDS011;15333;50.010;20.020;2024-01-16T06:48:28;26.15;;;16.25;;
28007;SDS011;15333;50.010;20.020;2024-01-16T06:51:28;26.95;;;16.15;;
28007;SDS011;15333;50.010;20.020;2024-01-16T06:54:29;25.08;;;15.90;;
28007;SDS011;15333;50.010;20.020;2024-01-16T06:57:30;25.90;;;17.40;;
28007;SDS011;15333;50.010;20.020;2024-01-16T07:00:31;25.73;;;16.50;;
28007;SDS011;15333;50.010;20.020;2024-01-16T07:03:33;28.92;;;18.50;;
28007;SDS011;15333;50.010;20.020;2024-01-16T07:06:34;29.08;;;18.92;;
28007;SDS011;15333;50.010;20.020;2024-01-16T07:09:35;32.65;;;19.45;;
28007;SDS011;15333;50.010;20.020;2024-01-16T07:12:36;30.75;;;19.23;;
28007;SDS011;15333;50.010;20.020;2024-01-16T07:15:36;33.55;;;20.27;;
28007;SDS011;15333;50.010;20.020;2024-01-16T07:18:38;34.95;;;18.98;;
28007;SDS011;15333;50.010;20.020;2024-01-16T07:21:39;31.27;;;18.20;;
28007;SDS011;15333;50.010;20.020;2024-01-16T07:24:40;32.75;;;18.45;;
28007;SDS011;15333;50.010;20.020;2024-01-16T07:27:41;30.83;;;18.70;;
28007;SDS011;15333;50.010;20.020;2024-01-16T07:30:43;33.58;;;19.60;;
28007;SDS011;15333;50.010;20.020;2024-01-16T07:33:44;31.63;;;20.08;;
28007;SDS011;15333;50.010;20.020;2024-01-16T07:36:45;33.17;;;18.45;;
28007;SDS011;15333;50.010;20.020;2024-01-16T07:39:46;30.55;;;18.42;;
28007;SDS011;15333;50.010;20.020;2024-01-16T07:42:47;39.22;;;21.30;;
28007;SDS011;15333;50.010;20.020;2024-01-16T07:45:47;30.35;;;19.73;;
28007;SDS011;15333;50.010;20.020;2024-01-16T07:48:48;36.85;;;21.10;;
28007;SDS011;15333;50.010;20.020;2024-01-16T07:51:49;34.42;;;20.85;;
28007;SDS011;15333;50.010;20.020;2024-01-16T07:54:50;37.72;;;20.73;;
28007;SDS011;15333;50.010;20.020;2024-01-16T07:57:51;34.03;;;19.33;;
28007;SDS011;15333;50.010;20.020;2024-01-16T08:00:52;29.33;;;16.40;;
28007;SDS011;15333;50.010;20.020;2024-01-16T08:03:53;33.72;;;18.63;;
28007;SDS011;15333;50.010;20.020;2024-01-16T08:06:54;31.77;;;19.10;;
28007;SDS011;15333;50.010;20.020;2024-01-16T08:09:55;29.67;;;17.67;;
28007;SDS011;15333;50.010;20.020;2024-01-16T08:12:56;33.83;;;18.77;;
28007;SDS011;15333;50.010;20.020;2024-01-16T08:15:57;30.33;;;17.67;;
28007;SDS011;15333;50.010;20.020;2024-01-16T08:18:58;34.22;;;18.00;;
28007;SDS011;15333;50.010;20.020;2024-01-16T08:21:59;32.05;;;16.13;;
28007;SDS011;15333;50.010;20.020;2024-01-16T08:25:00;32.63;;;17.10;;
28007;SDS011;15333;50.010;20.020;2024-01-16T08:28:01;29.90;;;16.13;;
28007;SDS011;15333;50.010;20.020;2024-01-16T08:31:02;25.25;;;13.85;;
28007;SDS011;15333;50.010;20.020;2024-01-16T08:34:02;26.00;;;13.95;;
28007;SDS011;15333;50.010;20.020;2024-01-16T08:37:03;17.77;;;9.57;;
28007;SDS011;15333;50.010;20.020;2024-01-16T08:40:05;22.90;;;12.98;;
28007;SDS011;15333;50.010;20.020;2024-01-16T08:43:07;25.35;;;12.27;;
28007;SDS011;15333;50.010;20.020;2024-01-16T08:46:08;18.23;;;9.90;;
28007;SDS011;15333;50.010;20.020;2024-01-16T08:49:09;19.45;;;10.43;;
28007;SDS011;15333;50.010;20.020;2024-01-16T08:52:11;24.73;;;11.25;;
28007;SDS011;15333;50.010;20.020;2024-01-16T08:55:13;20.90;;;10.35;;
28007;SDS011;15333;50.010;20.020;2024-01-16T08:58:13;22.77;;;10.20;;
28007;SDS011;15333;50.010;20.020;2024-01-16T09:01:14;19.45;;;10.60;;
28007;SDS011;15333;50.010;20.020;2024-01-16T09:04:15;21.15;;;9.93;;
28007;SDS011;15333;50.010;20.020;2024-01-16T09:07:16;17.08;;;9.38;;
28007;SDS011;15333;50.010;20.020;2024-01-16T09:10:18;16.88;;;9.23;;
28007;SDS011;15333;50.010;20.020;2024-01-16T09:13:20;16.60;;;9.13;;
28007;SDS011;15333;50.010;20.020;2024-01-16T09:16:21;17.27;;;9.10;;
28007;SDS011;15333;50.010;20.020;2024-01-16T09:19:22;15.10;;;8.85;;
28007;SDS011;15333;50.010;20.020;2024-01-16T09:22:23;15.23;;;8.23;;
28007;SDS011;15333;50.010;20.020;2024-01-16T09:25:24;17.08;;;8.32;;
28007;SDS011;15333;50.010;20.020;2024-01-16T09:28:25;20.52;;;9.40;;
28007;SDS011;15333;50.010;20.020;2024-01-16T09:31:29;17.70;;;8.40;;
28007;SDS011;15333;50.010;20.020;2024-01-16T09:34:30;16.52;;;8.23;;
28007;SDS011;15333;50.010;20.020;2024-01-16T09:37:31;15.05;;;8.02;;
28007;SDS011;15333;50.010;20.020;2024-01-16T09:40:31;18.67;;;8.13;;
28007;SDS011;15333;50.010;20.020;2024-01-16T09:43:32;14.43;;;8.00;;
28007;SDS011;15333;50.010;20.020;2024-01-16T09:46:34;18.02;;;7.88;;
28007;SDS011;15333;50.010;20.020;2024-01-16T09:49:38;11.95;;;6.38;;
28007;SDS011;15333;50.010;20.020;2024-01-16T09:52:39;14.32;;;6.65;;
28007;SDS011;15333;50.010;20.020;2024-01-16T09:55:40;13.43;;;6.15;;
28007;SDS011;15333;50.010;20.020;2024-01-16T09:58:42;13.85;;;6.03;;
28007;SDS011;15333;50.010;20.020;2024-01-16T10:01:44;13.50;;;6.10;;
28007;SDS011;15333;50.010;20.020;2024-01-16T10:04:45;11.38;;;5.70;;
28007;SDS011;15333;50.010;20.020;2024-01-16T10:07:47;9.13;;;5.72;;
28007;SDS011;15333;50.010;20.020;2024-01-16T10:10:50;9.82;;;4.85;;
28007;SDS011;15333;50.010;20.020;2024-01-16T10:13:50;6.68;;;4.22;;
28007;SDS011;15333;50.010;20.020;2024-01-16T10:16:58;9.77;;;5.25;;
28007;SDS011;15333;50.010;20.020;2024-01-16T10:20:00;16.60;;;6.18;;
28007;SDS011;15333;50.010;20.020;2024-01-16T10:23:04;10.35;;;5.72;;
28007;SDS011;15333;50.010;20.020;2024-01-16T10:29:07;14.23;;;6.30;;
28007;SDS011;15333;50.010;20.020;2024-01-16T10:32:09;10.15;;;5.95;;
28007;SDS011;15333;50.010;20.020;2024-01-16T10:35:11;11.88;;;6.20;;
28007;SDS011;15333;50.010;20.020;2024-01-16T10:38:19;11.80;;;6.68;;
28007;SDS011;15333;50.010;20.020;2024-01-16T10:41:23;17.25;;;6.40;;
28007;SDS011;15333;50.010;20.020;2024-01-16T10:44:27;9.63;;;5.60;;
28007;SDS011;15333;50.010;20.020;2024-01-16T10:47:28;11.20;;;6.15;;
28007;SDS011;15333;50.010;20.020;2024-01-16T10:50:29;10.98;;;5.20;;
28007;SDS011;15333;50.010;20.020;2024-01-16T10:53:32;11.45;;;7.78;;
28007;SDS011;15333;50.010;20.020;2024-01-16T10:56:34;13.07;;;7.03;;
28007;SDS011;15333;50.010;20.020;2024-01-16T11:02:58;12.52;;;7.70;;
28007;SDS011;15333;50.010;20.020;2024-01-16T11:06:05;13.70;;;7.20;;
28007;SDS011;15333;50.010;20.020;2024-01-16T11:09:08;17.05;;;6.85;;
28007;SDS011;15333;50.010;20.020;2024-01-16T11:12:09;14.55;;;7.28;;
28007;SDS011;15333;50.010;20.020;2024-01-16T11:15:13;11.63;;;6.65;;
28007;SDS011;15333;50.010;20.020;2024-01-16T11:18:15;14.35;;;6.85;;
28007;SDS011;15333;50.010;20.020;2024-01-16T11:21:17;13.90;;;6.70;;
28007;SDS011;15333;50.010;20.020;2024-01-16T11:24:18;17.73;;;6.50;;
28007;SDS011;15333;50.010;20.020;2024-01-16T11:27:22;13.15;;;6.07;;
28007;SDS011;15333;50.010;20.020;2024-01-16T11:30:29;13.25;;;6.10;;
28007;SDS011;15333;50.010;20.020;2024-01-16T11:36:49;7.25;;;5.18;;
28007;SDS011;15333;50.010;20.020;2024-01-16T11:40:19;9.70;;;4.97;;
28007;SDS011;15333;50.010;20.020;2024-01-16T11:43:35;11.63;;;5.30;;
28007;SDS011;15333;50.010;20.020;2024-01-16T11:50:10;7.50;;;4.32;;
28007;SDS011;15333;50.010;20.020;2024-01-16T11:53:30;6.35;;;3.65;;
28007;SDS011;15333;50.010;20.020;2024-01-16T12:00:23;7.20;;;3.83;;
28007;SDS011;15333;50.010;20.020;2024-01-16T12:03:29;7.57;;;4.63;;
28007;SDS011;15333;50.010;20.020;2024-01-16T12:06:31;10.20;;;5.15;;
28007;SDS011;15333;50.010;20.020;2024-01-16T12:09:32;8.70;;;4.65;;
28007;SDS011;15333;50.010;20.020;2024-01-16T12:12:34;17.80;;;7.40;;
28007;SDS011;15333;50.010;20.020;2024-01-16T12:15:35;14.95;;;7.80;;
28007;SDS011;15333;50.010;20.020;2024-01-16T12:18:36;14.07;;;9.27;;
28007;SDS011;15333;50.010;20.020;2024-01-16T12:24:44;14.43;;;8.27;;
28007;SDS011;15333;50.010;20.020;2024-01-16T12:27:46;16.65;;;8.20;;
28007;SDS011;15333;50.010;20.020;2024-01-16T12:30:50;15.15;;;8.68;;
28007;SDS011;15333;50.010;20.020;2024-01-16T12:33:52;17.23;;;8.55;;
28007;SDS011;15333;50.010;20.020;2024-01-16T12:36:56;13.77;;;7.40;;
28007;SDS011;15333;50.010;20.020;2024-01-16T12:40:05;15.18;;;7.82;;
28007;SDS011;15333;50.010;20.020;2024-01-16T12:43:07;14.18;;;8.52;;
28007;SDS011;15333;50.010;20.020;2024-01-16T12:46:12;14.82;;;8.02;;
28007;SDS011;15333;50.010;20.020;2024-01-16T12:49:13;11.70;;;7.80;;
28007;SDS011;15333;50.010;20.020;2024-01-16T12:52:20;15.32;;;8.07;;
28007;SDS011;15333;50.010;20.020;2024-01-16T12:55:22;14.40;;;8.35;;
28007;SDS011;15333;50.010;20.020;2024-01-16T12:58:23;19.05;;;9.70;;
28007;SDS011;15333;50.010;20.020;2024-01-16T13:01:25;15.43;;;8.50;;
28007;SDS011;15333;50.010;20.020;2024-01-16T13:04:28;15.45;;;9.20;;
28007;SDS011;15333;50.010;20.020;2024-01-16T13:07:29;19.70;;;10.88;;
28007;SDS011;15333;50.010;20.020;2024-01-16T13:10:33;15.27;;;7.18;;
28007;SDS011;15333;50.010;20.020;2024-01-16T13:13:34;10.60;;;6.03;;
28007;SDS011;15333;50.010;20.020;2024-01-16T13:16:36;12.70;;;6.43;;
28007;SDS011;15333;50.010;20.020;2024-01-16T13:19:36;14.35;;;5.93;;
28007;SDS011;15333;50.010;20.020;2024-01-16T13:22:37;9.15;;;5.50;;
28007;SDS011;15333;50.010;20.020;2024-01-16T13:25:38;13.13;;;5.78;;
28007;SDS011;15333;50.010;20.020;2024-01-16T13:28:39;11.95;;;5.97;;
28007;SDS011;15333;50.010;20.020;2024-01-16T13:31:40;13.23;;;6.90;;
28007;SDS011;15333;50.010;20.020;2024-01-16T13:34:40;14.07;;;7.80;;
28007;SDS011;15333;50.010;20.020;2024-01-16T13:37:46;12.82;;;7.15;;
28007;SDS011;15333;50.010;20.020;2024-01-16T13:40:47;11.98;;;7.30;;
28007;SDS011;15333;50.010;20.020;2024-01-16T13:43:48;13.48;;;7.20;;
28007;SDS011;15333;50.010;20.020;2024-01-16T13:46:52;14.80;;;7.95;;
28007;SDS011;15333;50.010;20.020;2024-01-16T13:49:53;13.43;;;7.85;;
28007;SDS011;15333;50.010;20.020;2024-01-16T13:52:53;11.88;;;6.47;;
28007;SDS011;15333;50.010;20.020;2024-01-16T13:55:55;12.15;;;7.78;;
28007;SDS011;15333;50.010;20.020;2024-01-16T13:58:56;15.73;;;8.40;;
28007;SDS011;15333;50.010;20.020;2024-01-16T14:01:57;14.63;;;7.88;;
28007;SDS011;15333;50.010;20.020;2024-01-16T14:04:57;14.27;;;8.48;;
28007;SDS011;15333;50.010;20.020;2024-01-16T14:07:58;17.90;;;8.25;;
28007;SDS011;15333;50.010;20.020;2024-01-16T14:10:59;15.95;;;8.65;;
28007;SDS011;15333;50.010;20.020;2024-01-16T14:14:00;18.88;;;9.40;;
28007;SDS011;15333;50.010;20.020;2024-01-16T14:17:02;15.90;;;9.65;;
28007;SDS011;15333;50.010;20.020;2024-01-16T14:20:03;19.60;;;11.02;;
28007;SDS011;15333;50.010;20.020;2024-01-16T14:23:05;27.45;;;13.07;;
28007;SDS011;15333;50.010;20.020;2024-01-16T14:26:06;21.92;;;12.82;;
28007;SDS011;15333;50.010;20.020;2024-01-16T14:29:07;27.83;;;15.13;;
28007;SDS011;15333;50.010;20.020;2024-01-16T14:32:09;24.48;;;13.40;;
28007;SDS011;15333;50.010;20.020;2024-01-16T14:35:11;24.88;;;14.27;;
28007;SDS011;15333;50.010;20.020;2024-01-16T14:38:13;22.92;;;13.90;;
28007;SDS011;15333;50.010;20.020;2024-01-16T14:41:14;25.30;;;15.00;;
28007;SDS011;15333;50.010;20.020;2024-01-16T14:44:15;24.73;;;14.93;;
28007;SDS011;15333;50.010;20.020;2024-01-16T14:47:15;25.35;;;13.70;;
28007;SDS011;15333;50.010;20.020;2024-01-16T14:50:17;19.35;;;12.98;;
28007;SDS011;15333;50.010;20.020;2024-01-16T14:53:18;23.58;;;12.32;;
28007;SDS011;15333;50.010;20.020;2024-01-16T14:56:19;21.30;;;12.23;;
28007;SDS011;15333;50.010;20.020;2024-01-16T14:59:20;20.83;;;12.50;;
28007;SDS011;15333;50.010;20.020;2024-01-16T15:02:21;20.15;;;13.10;;
28007;SDS011;15333;50.010;20.020;2024-01-16T15:05:22;22.52;;;14.00;;
28007;SDS011;15333;50.010;20.020;2024-01-16T15:08:23;24.33;;;15.05;;
28007;SDS011;15333;50.010;20.020;2024-01-16T15:11:26;27.95;;;14.57;;
28007;SDS011;15333;50.010;20.020;2024-01-16T15:14:27;27.70;;;13.98;;
28007;SDS011;15333;50.010;20.020;2024-01-16T15:17:28;21.05;;;12.60;;
28007;SDS011;15333;50.010;20.020;2024-01-16T15:20:29;23.05;;;13.70;;
28007;SDS011;15333;50.010;20.020;2024-01-16T15:23:30;24.17;;;13.50;;
28007;SDS011;15333;50.010;20.020;2024-01-16T15:26:31;27.73;;;13.98;;
28007;SDS011;15333;50.010;20.020;2024-01-16T15:29:32;24.02;;;14.63;;
28007;SDS011;15333;50.010;20.020;2024-01-16T15:32:33;22.58;;;13.82;;
28007;SDS011;15333;50.010;20.020;2024-01-16T15:35:34;25.27;;;14.98;;
28007;SDS011;15333;50.010;20.020;2024-01-16T15:38:35;28.30;;;16.48;;
28007;SDS011;15333;50.010;20.020;2024-01-16T15:41:36;27.75;;;16.27;;
28007;SDS011;15333;50.010;20.020;2024-01-16T15:44:37;23.25;;;15.43;;
28007;SDS011;15333;50.010;20.020;2024-01-16T15:47:38;27.73;;;16.15;;
28007;SDS011;15333;50.010;20.020;2024-01-16T15:50:39;31.27;;;16.77;;
28007;SDS011;15333;50.010;20.020;2024-01-16T15:53:39;28.80;;;17.27;;
28007;SDS011;15333;50.010;20.020;2024-01-16T15:56:40;30.02;;;16.67;;
28007;SDS011;15333;50.010;20.020;2024-01-16T15:59:42;28.70;;;17.48;;
28007;SDS011;15333;50.010;20.020;2024-01-16T16:02:43;32.72;;;19.42;;
28007;SDS011;15333;50.010;20.020;2024-01-16T16:05:47;32.03;;;17.98;;
28007;SDS011;15333;50.010;20.020;2024-01-16T16:08:48;34.03;;;19.02;;
28007;SDS011;15333;50.010;20.020;2024-01-16T16:11:49;34.65;;;20.77;;
28007;SDS011;15333;50.010;20.020;2024-01-16T16:14:50;40.80;;;20.88;;
28007;SDS011;15333;50.010;20.020;2024-01-16T16:17:50;40.65;;;23.05;;
28007;SDS011;15333;50.010;20.020;2024-01-16T16:20:51;41.70;;;22.80;;
28007;SDS011;15333;50.010;20.020;2024-01-16T16:23:52;44.40;;;22.60;;
28007;SDS011;15333;50.010;20.020;2024-01-16T16:26:55;42.85;;;23.85;;
28007;SDS011;15333;50.010;20.020;2024-01-16T16:29:56;35.05;;;22.17;;
28007;SDS011;15333;50.010;20.020;2024-01-16T16:32:58;36.00;;;20.75;;
28007;SDS011;15333;50.010;20.020;2024-01-16T16:35:59;36.90;;;21.08;;
28007;SDS011;15333;50.010;20.020;2024-01-16T16:39:00;33.30;;;18.83;;
28007;SDS011;15333;50.010;20.020;2024-01-16T16:42:01;33.17;;;18.15;;
28007;SDS011;15333;50.010;20.020;2024-01-16T16:45:02;28.38;;;16.23;;
28007;SDS011;15333;50.010;20.020;2024-01-16T16:48:04;28.33;;;15.48;;
28007;SDS011;15333;50.010;20.020;2024-01-16T16:51:05;27.05;;;13.90;;
28007;SDS011;15333;50.010;20.020;2024-01-16T16:54:05;24.85;;;14.90;;
28007;SDS011;15333;50.010;20.020;2024-01-16T16:57:06;25.73;;;15.10;;
28007;SDS011;15333;50.010;20.020;2024-01-16T17:00:07;24.73;;;13.82;;
28007;SDS011;15333;50.010;20.020;2024-01-16T17:03:09;24.02;;;14.20;;
28007;SDS011;15333;50.010;20.020;2024-01-16T17:06:10;21.73;;;12.30;;
28007;SDS011;15333;50.010;20.020;2024-01-16T17:09:11;21.80;;;11.98;;
28007;SDS011;15333;50.010;20.020;2024-01-16T17:12:12;27.83;;;12.88;;
28007;SDS011;15333;50.010;20.020;2024-01-16T17:15:13;21.30;;;12.65;;
28007;SDS011;15333;50.010;20.020;2024-01-16T17:18:14;22.70;;;12.27;;
28007;SDS011;15333;50.010;20.020;2024-01-16T17:21:15;19.45;;;12.43;;
28007;SDS011;15333;50.010;20.020;2024-01-16T17:24:16;25.77;;;13.50;;
28007;SDS011;15333;50.010;20.020;2024-01-16T17:27:17;28.42;;;13.30;;
28007;SDS011;15333;50.010;20.020;2024-01-16T17:30:19;25.77;;;13.43;;
28007;SDS011;15333;50.010;20.020;2024-01-16T17:33:20;24.75;;;12.93;;
28007;SDS011;15333;50.010;20.020;2024-01-16T17:36:20;24.38;;;13.38;;
28007;SDS011;15333;50.010;20.020;2024-01-16T17:39:21;22.02;;;13.52;;
28007;SDS011;15333;50.010;20.020;2024-01-16T17:42:25;34.92;;;16.15;;
28007;SDS011;15333;50.010;20.020;2024-01-16T17:45:26;25.40;;;13.43;;
28007;SDS011;15333;50.010;20.020;2024-01-16T17:48:27;26.67;;;14.57;;
28007;SDS011;15333;50.010;20.020;2024-01-16T17:51:29;27.92;;;14.05;;
28007;SDS011;15333;50.010;20.020;2024-01-16T17:54:30;27.88;;;14.93;;